sensor_id;sensor_type;location;lat;lon;timestamp;pressure;altitude;pressure_sealevel;temperature;humidity
39309;BME280;26019;47.510;19.122;2022-08-19T00:01:47;99689.25;;;25.04;59.87
39309;BME280;26019;47.510;19.122;2022-08-19T00:11:54;99701.66;;;25.04;60.10
39309;BME280;26019;47.510;19.122;2022-08-19T00:21:57;99696.78;;;24.86;61.96
39309;BME280;26019;47.510;19.122;2022-08-19T00:31:58;99691.78;;;24.83;61.19
39309;BME280;26019;47.510;19.122;2022-08-19T00:42:01;99705.38;;;24.66;62.85
39309;BME280;26019;47.510;19.122;2022-08-19T00:52:08;99697.16;;;24.57;63.01
39309;BME280;26019;47.510;19.122;2022-08-19T01:02:15;99688.09;;;24.37;64.91
39309;BME280;26019;47.510;19.122;2022-08-19T01:12:18;99686.25;;;24.26;66.32
39309;BME280;26019;47.510;19.122;2022-08-19T01:32:33;99672.00;;;24.05;68.63
39309;BME280;26019;47.510;19.122;2022-08-19T01:42:36;99656.28;;;23.90;68.81
39309;BME280;26019;47.510;19.122;2022-08-19T01:52:42;99661.16;;;23.83;70.90
39309;BME280;26019;47.510;19.122;2022-08-19T02:02:45;99628.53;;;23.60;72.00
39309;BME280;26019;47.510;19.122;2022-08-19T02:12:47;99642.38;;;23.51;73.55
39309;BME280;26019;47.510;19.122;2022-08-19T02:22:53;99626.91;;;23.33;76.13
39309;BME280;26019;47.510;19.122;2022-08-19T02:32:55;99619.84;;;23.34;77.18
39309;BME280;26019;47.510;19.122;2022-08-19T02:42:57;99627.53;;;23.11;79.06
39309;BME280;26019;47.510;19.122;2022-08-19T02:52:59;99642.72;;;23.07;78.85
39309;BME280;26019;47.510;19.122;2022-08-19T03:03:01;99653.78;;;23.12;78.68
39309;BME280;26019;47.510;19.122;2022-08-19T03:13:03;99666.97;;;23.12;79.29
39309;BME280;26019;47.510;19.122;2022-08-19T03:23:05;99671.16;;;23.15;79.08
39309;BME280;26019;47.510;19.122;2022-08-19T03:33:08;99684.00;;;22.94;80.27
39309;BME280;26019;47.510;19.122;2022-08-19T03:43:18;99686.97;;;22.76;82.29
39309;BME280;26019;47.510;19.122;2022-08-19T03:53:20;99690.31;;;22.65;83.46
39309;BME280;26019;47.510;19.122;2022-08-19T04:03:23;99697.75;;;22.59;83.88
39309;BME280;26019;47.510;19.122;2022-08-19T04:13:25;99702.63;;;22.65;83.42
39309;BME280;26019;47.510;19.122;2022-08-19T04:23:30;99719.38;;;22.77;82.55
39309;BME280;26019;47.510;19.122;2022-08-19T04:33:32;99721.09;;;22.91;81.72
39309;BME280;26019;47.510;19.122;2022-08-19T04:43:36;99708.59;;;23.07;79.07
39309;BME280;26019;47.510;19.122;2022-08-19T04:53:41;99730.25;;;23.25;77.91
39309;BME280;26019;47.510;19.122;2022-08-19T05:03:44;99721.47;;;23.51;77.07
39309;BME280;26019;47.510;19.122;2022-08-19T05:13:47;99705.72;;;23.62;75.80
39309;BME280;26019;47.510;19.122;2022-08-19T05:24:01;99698.19;;;23.95;74.05
39309;BME280;26019;47.510;19.122;2022-08-19T05:34:07;99730.75;;;24.44;71.70
39309;BME280;26019;47.510;19.122;2022-08-19T05:44:25;99697.94;;;24.71;68.22
39309;BME280;26019;47.510;19.122;2022-08-19T05:54:41;99730.75;;;25.27;65.38
39309;BME280;26019;47.510;19.122;2022-08-19T06:36:31;99693.56;;;27.16;53.91
39309;BME280;26019;47.510;19.122;2022-08-19T06:46:36;99712.84;;;27.99;50.38
39309;BME280;26019;47.510;19.122;2022-08-19T06:56:41;99679.94;;;28.31;48.06
39309;BME280;26019;47.510;19.122;2022-08-19T07:07:07;99695.50;;;29.13;45.98
39309;BME280;26019;47.510;19.122;2022-08-19T07:17:21;99730.81;;;29.81;42.94
39309;BME280;26019;47.510;19.122;2022-08-19T07:27:23;99741.72;;;30.34;41.49
39309;BME280;26019;47.510;19.122;2022-08-19T07:37:27;99737.03;;;30.64;39.66
39309;BME280;26019;47.510;19.122;2022-08-19T07:47:43;99732.09;;;31.48;37.86
39309;BME280;26019;47.510;19.122;2022-08-19T07:58:02;99720.66;;;31.64;35.95
39309;BME280;26019;47.510;19.122;2022-08-19T08:08:05;99720.00;;;32.30;35.16
39309;BME280;26019;47.510;19.122;2022-08-19T08:18:34;99733.56;;;33.03;33.59
39309;BME280;26019;47.510;19.122;2022-08-19T08:28:53;99734.06;;;33.63;32.27
39309;BME280;26019;47.510;19.122;2022-08-19T08:38:57;99734.69;;;34.36;31.28
39309;BME280;26019;47.510;19.122;2022-08-19T08:59:40;99680.41;;;34.11;30.44
39309;BME280;26019;47.510;19.122;2022-08-19T09:09:49;99699.06;;;34.04;30.46
39309;BME280;26019;47.510;19.122;2022-08-19T09:30:38;99684.34;;;35.97;26.34
39309;BME280;26019;47.510;19.122;2022-08-19T09:40:41;99680.19;;;36.66;25.76
39309;BME280;26019;47.510;19.122;2022-08-19T09:50:43;99644.88;;;37.18;25.10
39309;BME280;26019;47.510;19.122;2022-08-19T10:00:53;99637.97;;;37.44;24.21
39309;BME280;26019;47.510;19.122;2022-08-19T10:10:56;99645.84;;;38.41;23.12
39309;BME280;26019;47.510;19.122;2022-08-19T10:21:08;99639.38;;;39.73;21.47
39309;BME280;26019;47.510;19.122;2022-08-19T10:31:25;99618.00;;;39.97;21.14
39309;BME280;26019;47.510;19.122;2022-08-19T10:41:48;99638.84;;;39.90;20.79
39309;BME280;26019;47.510;19.122;2022-08-19T10:51:50;99641.44;;;41.17;19.99
39309;BME280;26019;47.510;19.122;2022-08-19T11:02:20;99638.38;;;41.74;18.52
39309;BME280;26019;47.510;19.122;2022-08-19T11:12:24;99626.22;;;41.46;18.87
39309;BME280;26019;47.510;19.122;2022-08-19T11:22:26;99637.81;;;42.38;17.74
39309;BME280;26019;47.510;19.122;2022-08-19T11:32:42;99633.03;;;43.80;16.35
39309;BME280;26019;47.510;19.122;2022-08-19T11:42:49;99628.09;;;44.45;15.88
39309;BME280;26019;47.510;19.122;2022-08-19T11:52:57;99627.47;;;44.83;15.12
39309;BME280;26019;47.510;19.122;2022-08-19T12:03:03;99624.75;;;44.43;15.50
39309;BME280;26019;47.510;19.122;2022-08-19T12:13:05;99593.84;;;47.83;12.80
39309;BME280;26019;47.510;19.122;2022-08-19T12:23:09;99595.53;;;44.16;15.22
39309;BME280;26019;47.510;19.122;2022-08-19T12:33:11;99602.31;;;45.20;14.79
39309;BME280;26019;47.510;19.122;2022-08-19T12:43:15;99599.91;;;45.51;14.42
39309;BME280;26019;47.510;19.122;2022-08-19T12:53:17;99589.09;;;45.61;13.84
39309;BME280;26019;47.510;19.122;2022-08-19T13:03:22;99573.47;;;45.84;13.41
39309;BME280;26019;47.510;19.122;2022-08-19T13:13:30;99572.00;;;41.65;16.98
39309;BME280;26019;47.510;19.122;2022-08-19T13:23:33;99556.53;;;45.82;14.16
39309;BME280;26019;47.510;19.122;2022-08-19T13:33:35;99553.00;;;44.50;14.40
39309;BME280;26019;47.510;19.122;2022-08-19T13:43:39;99553.00;;;41.53;16.57
39309;BME280;26019;47.510;19.122;2022-08-19T13:53:42;99548.13;;;42.86;15.68
39309;BME280;26019;47.510;19.122;2022-08-19T14:03:48;99536.06;;;42.41;16.26
39309;BME280;26019;47.510;19.122;2022-08-19T14:13:51;99531.03;;;44.39;14.58
39309;BME280;26019;47.510;19.122;2022-08-19T14:23:53;99545.09;;;39.20;23.47
39309;BME280;26019;47.510;19.122;2022-08-19T14:33:55;99554.00;;;39.91;22.81
39309;BME280;26019;47.510;19.122;2022-08-19T14:43:56;99547.94;;;38.93;23.76
39309;BME280;26019;47.510;19.122;2022-08-19T14:53:58;99569.41;;;35.99;28.03
39309;BME280;26019;47.510;19.122;2022-08-19T15:04:00;99593.34;;;33.20;30.33
39309;BME280;26019;47.510;19.122;2022-08-19T15:14:04;99622.25;;;31.86;30.27
39309;BME280;26019;47.510;19.122;2022-08-19T15:24:07;99655.81;;;31.88;30.20
39309;BME280;26019;47.510;19.122;2022-08-19T15:34:10;99682.31;;;31.73;31.36
39309;BME280;26019;47.510;19.122;2022-08-19T15:44:14;99669.66;;;31.41;32.38
39309;BME280;26019;47.510;19.122;2022-08-19T15:54:18;99593.47;;;31.55;32.13
39309;BME280;26019;47.510;19.122;2022-08-19T16:04:21;99589.56;;;31.24;33.70
39309;BME280;26019;47.510;19.122;2022-08-19T16:14:42;99589.53;;;31.16;32.70
39309;BME280;26019;47.510;19.122;2022-08-19T16:24:43;99576.28;;;31.14;32.23
39309;BME280;26019;47.510;19.122;2022-08-19T16:34:46;99610.63;;;30.75;32.59
39309;BME280;26019;47.510;19.122;2022-08-19T16:44:47;99644.13;;;30.33;32.19
39309;BME280;26019;47.510;19.122;2022-08-19T16:54:49;99699.78;;;30.00;33.30
39309;BME280;26019;47.510;19.122;2022-08-19T17:04:51;99733.09;;;29.76;33.06
39309;BME280;26019;47.510;19.122;2022-08-19T17:15:00;99715.25;;;29.58;33.94
39309;BME280;26019;47.510;19.122;2022-08-19T17:25:03;99648.69;;;29.30;34.97
39309;BME280;26019;47.510;19.122;2022-08-19T17:35:05;99623.25;;;29.18;35.49
39309;BME280;26019;47.510;19.122;2022-08-19T17:45:08;99566.13;;;28.94;37.04
39309;BME280;26019;47.510;19.122;2022-08-19T17:55:11;99544.97;;;28.55;37.76
39309;BME280;26019;47.510;19.122;2022-08-19T18:05:13;99583.47;;;28.31;38.95
39309;BME280;26019;47.510;19.122;2022-08-19T18:15:15;99580.41;;;28.26;38.65
39309;BME280;26019;47.510;19.122;2022-08-19T18:25:22;99725.94;;;28.22;38.58
39309;BME280;26019;47.510;19.122;2022-08-19T18:35:30;99807.75;;;27.66;41.28
39309;BME280;26019;47.510;19.122;2022-08-19T18:45:32;99870.81;;;27.20;43.70
39309;BME280;26019;47.510;19.122;2022-08-19T18:55:53;99848.66;;;25.99;51.35
39309;BME280;26019;47.510;19.122;2022-08-19T19:05:56;99812.09;;;25.47;59.52
39309;BME280;26019;47.510;19.122;2022-08-19T19:15:58;99773.91;;;24.92;65.15
39309;BME280;26019;47.510;19.122;2022-08-19T19:26:07;99756.59;;;25.23;64.17
39309;BME280;26019;47.510;19.122;2022-08-19T19:36:11;99728.88;;;25.52;63.17
39309;BME280;26019;47.510;19.122;2022-08-19T19:46:13;99706.75;;;25.64;68.48
39309;BME280;26019;47.510;19.122;2022-08-19T19:56:17;99708.25;;;25.10;74.86
39309;BME280;26019;47.510;19.122;2022-08-19T20:06:20;99667.53;;;25.01;80.04
39309;BME280;26019;47.510;19.122;2022-08-19T20:16:23;99946.53;;;24.29;81.77
39309;BME280;26019;47.510;19.122;2022-08-19T20:26:31;99954.94;;;23.15;99.63
39309;BME280;26019;47.510;19.122;2022-08-19T20:36:34;99996.88;;;21.25;100.00
39309;BME280;26019;47.510;19.122;2022-08-19T20:46:37;100001.63;;;20.35;100.00
39309;BME280;26019;47.510;19.122;2022-08-19T20:56:39;59678.94;;;-147.84;100.00
39309;BME280;26019;47.510;19.122;2022-08-19T21:06:41;59678.94;;;-147.84;100.00
39309;BME280;26019;47.510;19.122;2022-08-19T21:16:46;59678.94;;;-147.84;100.00
39309;BME280;26019;47.510;19.122;2022-08-19T21:27:47;59678.94;;;-147.84;100.00
39309;BME280;26019;47.510;19.122;2022-08-19T21:37:50;59678.94;;;-147.84;100.00
39309;BME280;26019;47.510;19.122;2022-08-19T21:48:53;59678.94;;;-147.84;100.00
39309;BME280;26019;47.510;19.122;2022-08-19T21:59:53;59678.94;;;-147.84;100.00
39309;BME280;26019;47.510;19.122;2022-08-19T22:10:54;59678.94;;;-147.84;100.00
39309;BME280;26019;47.510;19.122;2022-08-19T22:20:59;99747.25;;;20.64;100.00
39309;BME280;26019;47.510;19.122;2022-08-19T22:31:02;99688.88;;;20.74;100.00
39309;BME280;26019;47.510;19.122;2022-08-19T22:41:05;99682.47;;;20.64;100.00
39309;BME280;26019;47.510;19.122;2022-08-19T22:51:10;99655.63;;;20.59;100.00
39309;BME280;26019;47.510;19.122;2022-08-19T23:01:31;99642.66;;;20.41;100.00
39309;BME280;26019;47.510;19.122;2022-08-19T23:11:35;99628.63;;;20.42;100.00
39309;BME280;26019;47.510;19.122;2022-08-19T23:21:43;99633.00;;;20.42;100.00
39309;BME280;26019;47.510;19.122;2022-08-19T23:31:46;99642.44;;;20.30;100.00
39309;BME280;26019;47.510;19.122;2022-08-19T23:41:49;99649.78;;;20.39;100.00
39309;BME280;26019;47.510;19.122;2022-08-19T23:51:53;99635.91;;;20.37;100.00
